sensor_id;sensor_type;location;lat;lon;timestamp;P1;durP1;ratioP1;P2;durP2;ratioP2
23614;SDS011;11985;49.404;7.734;2022-12-10T00:01:02;26.83;;;12.52;;
23614;SDS011;11985;49.404;7.734;2022-12-10T00:06:05;27.00;;;13.60;;
23614;SDS011;11985;49.404;7.734;2022-12-10T00:11:11;22.90;;;9.75;;
23614;SDS011;11985;49.404;7.734;2022-12-10T00:16:16;28.40;;;13.57;;
23614;SDS011;11985;49.404;7.734;2022-12-10T00:21:19;26.42;;;12.80;;
23614;SDS011;11985;49.404;7.734;2022-12-10T00:26:24;24.58;;;12.93;;
23614;SDS011;11985;49.404;7.734;2022-12-10T00:31:28;26.75;;;12.40;;
23614;SDS011;11985;49.404;7.734;2022-12-10T00:36:31;26.27;;;12.75;;
23614;SDS011;11985;49.404;7.734;2022-12-10T00:41:36;24.20;;;12.15;;
23614;SDS011;11985;49.404;7.734;2022-12-10T00:46:38;25.85;;;12.00;;
23614;SDS011;11985;49.404;7.734;2022-12-10T00:51:39;25.88;;;12.57;;
23614;SDS011;11985;49.404;7.734;2022-12-10T00:56:42;24.10;;;11.95;;
23614;SDS011;11985;49.404;7.734;2022-12-10T01:01:44;25.50;;;12.65;;
23614;SDS011;11985;49.404;7.734;2022-12-10T01:06:46;27.13;;;12.88;;
23614;SDS011;11985;49.404;7.734;2022-12-10T01:11:50;23.63;;;12.27;;
23614;SDS011;11985;49.404;7.734;2022-12-10T01:16:53;26.10;;;12.32;;
23614;SDS011;11985;49.404;7.734;2022-12-10T01:21:57;26.38;;;13.20;;
23614;SDS011;11985;49.404;7.734;2022-12-10T01:27:00;23.27;;;12.82;;
23614;SDS011;11985;49.404;7.734;2022-12-10T01:32:02;25.95;;;13.20;;
23614;SDS011;11985;49.404;7.734;2022-12-10T01:37:04;27.13;;;13.32;;
23614;SDS011;11985;49.404;7.734;2022-12-10T01:42:09;30.75;;;13.05;;
23614;SDS011;11985;49.404;7.734;2022-12-10T01:47:13;26.35;;;13.30;;
23614;SDS011;11985;49.404;7.734;2022-12-10T01:52:14;26.88;;;13.40;;
23614;SDS011;11985;49.404;7.734;2022-12-10T01:57:18;29.20;;;12.70;;
23614;SDS011;11985;49.404;7.734;2022-12-10T02:02:24;27.90;;;13.82;;
23614;SDS011;11985;49.404;7.734;2022-12-10T02:07:35;30.17;;;13.65;;
23614;SDS011;11985;49.404;7.734;2022-12-10T02:12:48;30.77;;;13.73;;
23614;SDS011;11985;49.404;7.734;2022-12-10T02:17:54;28.23;;;13.77;;
23614;SDS011;11985;49.404;7.734;2022-12-10T02:22:59;26.55;;;13.60;;
23614;SDS011;11985;49.404;7.734;2022-12-10T02:28:11;27.55;;;12.55;;
23614;SDS011;11985;49.404;7.734;2022-12-10T02:33:22;25.23;;;13.10;;
23614;SDS011;11985;49.404;7.734;2022-12-10T02:38:27;27.45;;;14.05;;
23614;SDS011;11985;49.404;7.734;2022-12-10T02:43:31;26.55;;;14.07;;
23614;SDS011;11985;49.404;7.734;2022-12-10T02:48:36;27.45;;;13.43;;
23614;SDS011;11985;49.404;7.734;2022-12-10T02:53:40;26.00;;;13.35;;
23614;SDS011;11985;49.404;7.734;2022-12-10T02:58:46;31.98;;;14.98;;
23614;SDS011;11985;49.404;7.734;2022-12-10T03:04:01;31.33;;;14.13;;
23614;SDS011;11985;49.404;7.734;2022-12-10T03:09:09;28.40;;;14.13;;
23614;SDS011;11985;49.404;7.734;2022-12-10T03:14:17;29.00;;;13.13;;
23614;SDS011;11985;49.404;7.734;2022-12-10T03:19:28;29.15;;;13.90;;
23614;SDS011;11985;49.404;7.734;2022-12-10T03:24:34;26.83;;;13.63;;
23614;SDS011;11985;49.404;7.734;2022-12-10T03:29:38;26.35;;;13.88;;
23614;SDS011;11985;49.404;7.734;2022-12-10T03:34:45;28.92;;;13.85;;
23614;SDS011;11985;49.404;7.734;2022-12-10T03:39:47;25.67;;;13.23;;
23614;SDS011;11985;49.404;7.734;2022-12-10T03:44:50;27.92;;;13.68;;
23614;SDS011;11985;49.404;7.734;2022-12-10T03:49:53;26.38;;;13.55;;
23614;SDS011;11985;49.404;7.734;2022-12-10T03:54:55;26.10;;;13.55;;
23614;SDS011;11985;49.404;7.734;2022-12-10T03:59:57;28.52;;;13.60;;
23614;SDS011;11985;49.404;7.734;2022-12-10T04:04:59;30.63;;;14.52;;
23614;SDS011;11985;49.404;7.734;2022-12-10T04:10:01;28.88;;;13.70;;
23614;SDS011;11985;49.404;7.734;2022-12-10T04:15:04;31.80;;;13.80;;
23614;SDS011;11985;49.404;7.734;2022-12-10T04:20:36;28.60;;;13.57;;
23614;SDS011;11985;49.404;7.734;2022-12-10T04:25:55;26.05;;;13.52;;
23614;SDS011;11985;49.404;7.734;2022-12-10T04:31:14;26.02;;;13.07;;
23614;SDS011;11985;49.404;7.734;2022-12-10T04:36:17;26.23;;;12.73;;
23614;SDS011;11985;49.404;7.734;2022-12-10T04:41:19;26.65;;;13.32;;
23614;SDS011;11985;49.404;7.734;2022-12-10T04:46:20;25.75;;;12.25;;
23614;SDS011;11985;49.404;7.734;2022-12-10T04:51:23;28.75;;;13.52;;
23614;SDS011;11985;49.404;7.734;2022-12-10T04:56:25;25.67;;;12.52;;
23614;SDS011;11985;49.404;7.734;2022-12-10T05:01:28;27.15;;;12.65;;
23614;SDS011;11985;49.404;7.734;2022-12-10T05:06:31;22.35;;;11.63;;
23614;SDS011;11985;49.404;7.734;2022-12-10T05:11:33;27.38;;;11.77;;
23614;SDS011;11985;49.404;7.734;2022-12-10T05:16:36;22.30;;;11.63;;
23614;SDS011;11985;49.404;7.734;2022-12-10T05:21:39;23.52;;;11.23;;
23614;SDS011;11985;49.404;7.734;2022-12-10T05:27:03;23.40;;;10.68;;
23614;SDS011;11985;49.404;7.734;2022-12-10T05:32:05;20.30;;;10.90;;
23614;SDS011;11985;49.404;7.734;2022-12-10T05:37:08;21.38;;;11.00;;
23614;SDS011;11985;49.404;7.734;2022-12-10T05:42:10;24.42;;;11.93;;
23614;SDS011;11985;49.404;7.734;2022-12-10T05:47:11;24.42;;;12.10;;
23614;SDS011;11985;49.404;7.734;2022-12-10T05:52:14;21.52;;;11.40;;
23614;SDS011;11985;49.404;7.734;2022-12-10T05:57:16;22.33;;;10.93;;
23614;SDS011;11985;49.404;7.734;2022-12-10T06:02:17;20.58;;;11.15;;
23614;SDS011;11985;49.404;7.734;2022-12-10T06:07:20;25.98;;;11.73;;
23614;SDS011;11985;49.404;7.734;2022-12-10T06:12:22;22.25;;;11.68;;
23614;SDS011;11985;49.404;7.734;2022-12-10T06:17:23;26.77;;;11.90;;
23614;SDS011;11985;49.404;7.734;2022-12-10T06:22:26;23.27;;;11.50;;
23614;SDS011;11985;49.404;7.734;2022-12-10T06:27:29;24.23;;;11.52;;
23614;SDS011;11985;49.404;7.734;2022-12-10T06:32:32;24.20;;;11.80;;
23614;SDS011;11985;49.404;7.734;2022-12-10T06:37:35;23.63;;;11.90;;
23614;SDS011;11985;49.404;7.734;2022-12-10T06:42:36;23.42;;;11.80;;
23614;SDS011;11985;49.404;7.734;2022-12-10T06:47:38;24.83;;;11.77;;
23614;SDS011;11985;49.404;7.734;2022-12-10T06:52:41;23.08;;;11.73;;
23614;SDS011;11985;49.404;7.734;2022-12-10T06:57:43;23.15;;;11.65;;
23614;SDS011;11985;49.404;7.734;2022-12-10T07:02:44;21.70;;;11.60;;
23614;SDS011;11985;49.404;7.734;2022-12-10T07:07:47;22.25;;;11.88;;
23614;SDS011;11985;49.404;7.734;2022-12-10T07:12:49;27.33;;;14.20;;
23614;SDS011;11985;49.404;7.734;2022-12-10T07:17:50;23.33;;;12.48;;
23614;SDS011;11985;49.404;7.734;2022-12-10T07:22:53;24.80;;;12.25;;
23614;SDS011;11985;49.404;7.734;2022-12-10T07:27:55;23.40;;;11.68;;
23614;SDS011;11985;49.404;7.734;2022-12-10T07:32:57;21.08;;;11.95;;
23614;SDS011;11985;49.404;7.734;2022-12-10T07:38:00;24.05;;;11.98;;
23614;SDS011;11985;49.404;7.734;2022-12-10T07:43:01;24.05;;;11.98;;
23614;SDS011;11985;49.404;7.734;2022-12-10T07:48:03;22.90;;;12.07;;
23614;SDS011;11985;49.404;7.734;2022-12-10T07:53:06;24.73;;;13.13;;
23614;SDS011;11985;49.404;7.734;2022-12-10T07:58:08;24.38;;;12.80;;
23614;SDS011;11985;49.404;7.734;2022-12-10T08:03:09;26.00;;;13.82;;
23614;SDS011;11985;49.404;7.734;2022-12-10T08:08:13;34.33;;;15.55;;
23614;SDS011;11985;49.404;7.734;2022-12-10T08:13:14;28.10;;;13.20;;
23614;SDS011;11985;49.404;7.734;2022-12-10T08:18:16;24.42;;;13.00;;
23614;SDS011;11985;49.404;7.734;2022-12-10T08:23:19;20.30;;;11.38;;
23614;SDS011;11985;49.404;7.734;2022-12-10T08:28:20;20.13;;;11.57;;
23614;SDS011;11985;49.404;7.734;2022-12-10T08:33:22;20.90;;;9.73;;
23614;SDS011;11985;49.404;7.734;2022-12-10T08:38:25;19.00;;;11.20;;
23614;SDS011;11985;49.404;7.734;2022-12-10T08:43:27;18.15;;;9.13;;
23614;SDS011;11985;49.404;7.734;2022-12-10T08:48:28;18.58;;;9.65;;
23614;SDS011;11985;49.404;7.734;2022-12-10T08:53:31;19.08;;;10.43;;
23614;SDS011;11985;49.404;7.734;2022-12-10T08:58:33;19.17;;;9.75;;
23614;SDS011;11985;49.404;7.734;2022-12-10T09:03:35;19.27;;;9.30;;
23614;SDS011;11985;49.404;7.734;2022-12-10T09:08:38;19.30;;;10.02;;
23614;SDS011;11985;49.404;7.734;2022-12-10T09:13:40;20.52;;;9.98;;
23614;SDS011;11985;49.404;7.734;2022-12-10T09:18:43;17.75;;;9.40;;
23614;SDS011;11985;49.404;7.734;2022-12-10T09:23:46;21.42;;;10.73;;
23614;SDS011;11985;49.404;7.734;2022-12-10T09:28:48;23.85;;;10.55;;
23614;SDS011;11985;49.404;7.734;2022-12-10T09:33:50;22.40;;;10.90;;
23614;SDS011;11985;49.404;7.734;2022-12-10T09:38:54;23.15;;;10.80;;
23614;SDS011;11985;49.404;7.734;2022-12-10T09:43:56;19.50;;;10.10;;
23614;SDS011;11985;49.404;7.734;2022-12-10T09:49:05;18.98;;;9.25;;
23614;SDS011;11985;49.404;7.734;2022-12-10T09:54:20;19.27;;;9.70;;
23614;SDS011;11985;49.404;7.734;2022-12-10T09:59:27;20.30;;;10.25;;
23614;SDS011;11985;49.404;7.734;2022-12-10T10:04:33;23.20;;;12.98;;
23614;SDS011;11985;49.404;7.734;2022-12-10T10:09:37;19.08;;;10.23;;
23614;SDS011;11985;49.404;7.734;2022-12-10T10:14:43;21.33;;;9.90;;
23614;SDS011;11985;49.404;7.734;2022-12-10T10:19:46;21.33;;;10.23;;
23614;SDS011;11985;49.404;7.734;2022-12-10T10:24:50;18.20;;;9.75;;
23614;SDS011;11985;49.404;7.734;2022-12-10T10:29:52;18.85;;;10.38;;
23614;SDS011;11985;49.404;7.734;2022-12-10T10:34:56;15.98;;;8.73;;
23614;SDS011;11985;49.404;7.734;2022-12-10T10:40:00;17.85;;;9.75;;
23614;SDS011;11985;49.404;7.734;2022-12-10T10:45:03;20.17;;;9.17;;
23614;SDS011;11985;49.404;7.734;2022-12-10T10:50:12;19.27;;;9.95;;
23614;SDS011;11985;49.404;7.734;2022-12-10T10:55:33;17.83;;;9.25;;
23614;SDS011;11985;49.404;7.734;2022-12-10T11:00:35;18.42;;;9.35;;
23614;SDS011;11985;49.404;7.734;2022-12-10T11:05:37;18.85;;;10.50;;
23614;SDS011;11985;49.404;7.734;2022-12-10T11:10:41;18.33;;;9.73;;
23614;SDS011;11985;49.404;7.734;2022-12-10T11:15:53;17.08;;;9.30;;
23614;SDS011;11985;49.404;7.734;2022-12-10T11:20:58;17.80;;;9.27;;
23614;SDS011;11985;49.404;7.734;2022-12-10T11:31:48;18.85;;;9.68;;
23614;SDS011;11985;49.404;7.734;2022-12-10T11:37:01;18.33;;;8.88;;
23614;SDS011;11985;49.404;7.734;2022-12-10T11:42:12;16.52;;;8.50;;
23614;SDS011;11985;49.404;7.734;2022-12-10T11:53:04;16.73;;;8.98;;
23614;SDS011;11985;49.404;7.734;2022-12-10T11:58:31;15.75;;;8.15;;
23614;SDS011;11985;49.404;7.734;2022-12-10T12:09:21;14.32;;;8.60;;
23614;SDS011;11985;49.404;7.734;2022-12-10T12:14:33;16.25;;;8.35;;
23614;SDS011;11985;49.404;7.734;2022-12-10T12:19:42;15.45;;;7.88;;
23614;SDS011;11985;49.404;7.734;2022-12-10T12:24:48;19.15;;;9.75;;
23614;SDS011;11985;49.404;7.734;2022-12-10T12:30:00;13.85;;;7.57;;
23614;SDS011;11985;49.404;7.734;2022-12-10T12:35:06;18.13;;;8.98;;
23614;SDS011;11985;49.404;7.734;2022-12-10T12:40:15;19.30;;;8.57;;
23614;SDS011;11985;49.404;7.734;2022-12-10T12:45:33;15.73;;;7.88;;
23614;SDS011;11985;49.404;7.734;2022-12-10T12:50:41;16.33;;;9.43;;
23614;SDS011;11985;49.404;7.734;2022-12-10T12:55:46;17.10;;;8.05;;
23614;SDS011;11985;49.404;7.734;2022-12-10T13:00:59;13.20;;;7.38;;
23614;SDS011;11985;49.404;7.734;2022-12-10T13:06:11;13.15;;;7.72;;
23614;SDS011;11985;49.404;7.734;2022-12-10T13:11:30;15.73;;;7.70;;
23614;SDS011;11985;49.404;7.734;2022-12-10T13:16:45;13.20;;;8.00;;
23614;SDS011;11985;49.404;7.734;2022-12-10T13:22:00;10.02;;;5.60;;
23614;SDS011;11985;49.404;7.734;2022-12-10T13:27:04;12.83;;;7.63;;
23614;SDS011;11985;49.404;7.734;2022-12-10T13:32:17;12.57;;;7.25;;
23614;SDS011;11985;49.404;7.734;2022-12-10T13:37:27;10.65;;;6.82;;
23614;SDS011;11985;49.404;7.734;2022-12-10T13:42:32;13.00;;;7.03;;
23614;SDS011;11985;49.404;7.734;2022-12-10T13:47:54;13.30;;;6.93;;
23614;SDS011;11985;49.404;7.734;2022-12-10T13:53:19;10.55;;;6.43;;
23614;SDS011;11985;49.404;7.734;2022-12-10T13:58:33;13.70;;;6.90;;
23614;SDS011;11985;49.404;7.734;2022-12-10T14:03:50;12.73;;;6.95;;
23614;SDS011;11985;49.404;7.734;2022-12-10T14:09:03;10.48;;;6.10;;
23614;SDS011;11985;49.404;7.734;2022-12-10T14:14:09;12.30;;;7.30;;
23614;SDS011;11985;49.404;7.734;2022-12-10T14:19:16;16.23;;;8.20;;
23614;SDS011;11985;49.404;7.734;2022-12-10T14:24:26;12.43;;;7.63;;
23614;SDS011;11985;49.404;7.734;2022-12-10T14:29:29;13.05;;;7.15;;
23614;SDS011;11985;49.404;7.734;2022-12-10T14:34:32;13.35;;;7.50;;
23614;SDS011;11985;49.404;7.734;2022-12-10T14:39:34;11.43;;;7.30;;
23614;SDS011;11985;49.404;7.734;2022-12-10T14:44:40;14.98;;;7.93;;
23614;SDS011;11985;49.404;7.734;2022-12-10T14:49:44;14.20;;;7.40;;
23614;SDS011;11985;49.404;7.734;2022-12-10T14:54:52;17.13;;;7.60;;
23614;SDS011;11985;49.404;7.734;2022-12-10T14:59:57;16.30;;;8.15;;
23614;SDS011;11985;49.404;7.734;2022-12-10T15:05:05;13.05;;;7.57;;
23614;SDS011;11985;49.404;7.734;2022-12-10T15:10:14;20.48;;;9.00;;
23614;SDS011;11985;49.404;7.734;2022-12-10T15:15:19;14.93;;;8.38;;
23614;SDS011;11985;49.404;7.734;2022-12-10T15:20:27;16.33;;;8.20;;
23614;SDS011;11985;49.404;7.734;2022-12-10T15:25:31;15.93;;;7.88;;
23614;SDS011;11985;49.404;7.734;2022-12-10T15:30:43;16.13;;;8.43;;
23614;SDS011;11985;49.404;7.734;2022-12-10T15:35:54;19.00;;;8.60;;
23614;SDS011;11985;49.404;7.734;2022-12-10T15:40:59;20.10;;;9.25;;
23614;SDS011;11985;49.404;7.734;2022-12-10T15:46:21;17.70;;;8.63;;
23614;SDS011;11985;49.404;7.734;2022-12-10T15:51:24;22.35;;;9.27;;
23614;SDS011;11985;49.404;7.734;2022-12-10T15:56:26;19.27;;;9.15;;
23614;SDS011;11985;49.404;7.734;2022-12-10T16:01:28;20.13;;;8.40;;
23614;SDS011;11985;49.404;7.734;2022-12-10T16:06:31;15.05;;;7.13;;
23614;SDS011;11985;49.404;7.734;2022-12-10T16:11:32;13.75;;;7.43;;
23614;SDS011;11985;49.404;7.734;2022-12-10T16:16:34;14.35;;;7.05;;
23614;SDS011;11985;49.404;7.734;2022-12-10T16:21:37;12.52;;;6.82;;
23614;SDS011;11985;49.404;7.734;2022-12-10T16:26:39;14.00;;;7.28;;
23614;SDS011;11985;49.404;7.734;2022-12-10T16:31:40;12.43;;;6.05;;
23614;SDS011;11985;49.404;7.734;2022-12-10T16:36:44;13.13;;;6.13;;
23614;SDS011;11985;49.404;7.734;2022-12-10T16:41:50;15.65;;;6.80;;
23614;SDS011;11985;49.404;7.734;2022-12-10T16:46:52;12.85;;;5.70;;
23614;SDS011;11985;49.404;7.734;2022-12-10T16:51:55;11.77;;;6.50;;
23614;SDS011;11985;49.404;7.734;2022-12-10T16:56:57;11.52;;;6.03;;
23614;SDS011;11985;49.404;7.734;2022-12-10T17:01:58;13.57;;;6.47;;
23614;SDS011;11985;49.404;7.734;2022-12-10T17:07:01;11.90;;;6.47;;
23614;SDS011;11985;49.404;7.734;2022-12-10T17:12:03;14.38;;;6.40;;
23614;SDS011;11985;49.404;7.734;2022-12-10T17:17:06;11.38;;;6.63;;
23614;SDS011;11985;49.404;7.734;2022-12-10T17:22:10;14.18;;;6.78;;
23614;SDS011;11985;49.404;7.734;2022-12-10T17:27:13;16.33;;;7.00;;
23614;SDS011;11985;49.404;7.734;2022-12-10T17:32:18;13.45;;;7.05;;
23614;SDS011;11985;49.404;7.734;2022-12-10T17:37:22;13.25;;;6.93;;
23614;SDS011;11985;49.404;7.734;2022-12-10T17:42:24;20.50;;;8.70;;
23614;SDS011;11985;49.404;7.734;2022-12-10T17:47:25;25.88;;;10.40;;
23614;SDS011;11985;49.404;7.734;2022-12-10T17:52:29;25.17;;;11.93;;
23614;SDS011;11985;49.404;7.734;2022-12-10T17:57:30;26.40;;;12.18;;
23614;SDS011;11985;49.404;7.734;2022-12-10T18:02:32;25.42;;;12.48;;
23614;SDS011;11985;49.404;7.734;2022-12-10T18:07:35;32.95;;;13.70;;
23614;SDS011;11985;49.404;7.734;2022-12-10T18:12:37;31.77;;;13.85;;
23614;SDS011;11985;49.404;7.734;2022-12-10T18:17:39;23.55;;;12.38;;
23614;SDS011;11985;49.404;7.734;2022-12-10T18:22:42;30.60;;;12.18;;
23614;SDS011;11985;49.404;7.734;2022-12-10T18:27:44;20.67;;;10.82;;
23614;SDS011;11985;49.404;7.734;2022-12-10T18:32:46;24.65;;;11.60;;
23614;SDS011;11985;49.404;7.734;2022-12-10T18:37:49;26.20;;;10.88;;
23614;SDS011;11985;49.404;7.734;2022-12-10T18:42:51;23.17;;;11.13;;
23614;SDS011;11985;49.404;7.734;2022-12-10T18:47:52;22.50;;;10.80;;
23614;SDS011;11985;49.404;7.734;2022-12-10T18:52:55;19.70;;;9.60;;
23614;SDS011;11985;49.404;7.734;2022-12-10T18:57:57;21.85;;;9.90;;
23614;SDS011;11985;49.404;7.734;2022-12-10T19:02:58;18.88;;;8.57;;
23614;SDS011;11985;49.404;7.734;2022-12-10T19:08:01;19.95;;;9.70;;
23614;SDS011;11985;49.404;7.734;2022-12-10T19:13:03;16.75;;;8.50;;
23614;SDS011;11985;49.404;7.734;2022-12-10T19:18:04;19.80;;;9.90;;
23614;SDS011;11985;49.404;7.734;2022-12-10T19:23:08;21.30;;;10.15;;
23614;SDS011;11985;49.404;7.734;2022-12-10T19:28:09;19.55;;;9.27;;
23614;SDS011;11985;49.404;7.734;2022-12-10T19:33:11;22.25;;;10.10;;
23614;SDS011;11985;49.404;7.734;2022-12-10T19:38:14;20.63;;;10.63;;
23614;SDS011;11985;49.404;7.734;2022-12-10T19:43:16;23.65;;;11.38;;
23614;SDS011;11985;49.404;7.734;2022-12-10T19:48:17;21.92;;;11.82;;
23614;SDS011;11985;49.404;7.734;2022-12-10T19:53:21;26.30;;;11.82;;
23614;SDS011;11985;49.404;7.734;2022-12-10T19:58:23;20.80;;;11.02;;
23614;SDS011;11985;49.404;7.734;2022-12-10T20:03:24;25.92;;;10.93;;
23614;SDS011;11985;49.404;7.734;2022-12-10T20:08:27;25.85;;;12.13;;
23614;SDS011;11985;49.404;7.734;2022-12-10T20:13:28;23.75;;;11.80;;
23614;SDS011;11985;49.404;7.734;2022-12-10T20:18:30;22.85;;;10.05;;
23614;SDS011;11985;49.404;7.734;2022-12-10T20:23:33;15.80;;;8.68;;
23614;SDS011;11985;49.404;7.734;2022-12-10T20:28:34;19.85;;;9.98;;
23614;SDS011;11985;49.404;7.734;2022-12-10T20:33:36;19.10;;;8.82;;
23614;SDS011;11985;49.404;7.734;2022-12-10T20:38:39;18.60;;;8.43;;
23614;SDS011;11985;49.404;7.734;2022-12-10T20:43:40;21.52;;;8.40;;
23614;SDS011;11985;49.404;7.734;2022-12-10T20:48:42;17.35;;;7.95;;
23614;SDS011;11985;49.404;7.734;2022-12-10T20:53:45;16.33;;;8.35;;
23614;SDS011;11985;49.404;7.734;2022-12-10T20:58:47;16.10;;;8.32;;
23614;SDS011;11985;49.404;7.734;2022-12-10T21:03:50;18.73;;;9.55;;
23614;SDS011;11985;49.404;7.734;2022-12-10T21:08:53;16.38;;;8.38;;
23614;SDS011;11985;49.404;7.734;2022-12-10T21:13:56;20.83;;;9.05;;
23614;SDS011;11985;49.404;7.734;2022-12-10T21:18:58;17.90;;;9.60;;
23614;SDS011;11985;49.404;7.734;2022-12-10T21:24:01;24.85;;;8.98;;
23614;SDS011;11985;49.404;7.734;2022-12-10T21:29:03;17.83;;;9.40;;
23614;SDS011;11985;49.404;7.734;2022-12-10T21:34:05;21.42;;;9.20;;
23614;SDS011;11985;49.404;7.734;2022-12-10T21:39:08;19.45;;;10.10;;
23614;SDS011;11985;49.404;7.734;2022-12-10T21:44:09;21.55;;;10.15;;
23614;SDS011;11985;49.404;7.734;2022-12-10T21:49:11;23.58;;;10.75;;
23614;SDS011;11985;49.404;7.734;2022-12-10T21:54:14;19.55;;;9.32;;
23614;SDS011;11985;49.404;7.734;2022-12-10T21:59:16;18.40;;;9.02;;
23614;SDS011;11985;49.404;7.734;2022-12-10T22:04:17;21.10;;;9.48;;
23614;SDS011;11985;49.404;7.734;2022-12-10T22:09:20;17.83;;;8.80;;
23614;SDS011;11985;49.404;7.734;2022-12-10T22:14:22;18.88;;;8.98;;
23614;SDS011;11985;49.404;7.734;2022-12-10T22:19:23;18.17;;;8.55;;
23614;SDS011;11985;49.404;7.734;2022-12-10T22:24:26;18.77;;;8.15;;
23614;SDS011;11985;49.404;7.734;2022-12-10T22:29:28;20.02;;;9.32;;
23614;SDS011;11985;49.404;7.734;2022-12-10T22:34:30;19.75;;;9.48;;
23614;SDS011;11985;49.404;7.734;2022-12-10T22:39:33;21.00;;;8.50;;
23614;SDS011;11985;49.404;7.734;2022-12-10T22:44:34;18.10;;;8.68;;
23614;SDS011;11985;49.404;7.734;2022-12-10T22:49:36;22.17;;;9.10;;
23614;SDS011;11985;49.404;7.734;2022-12-10T22:54:39;18.38;;;8.75;;
23614;SDS011;11985;49.404;7.734;2022-12-10T22:59:40;22.92;;;8.77;;
23614;SDS011;11985;49.404;7.734;2022-12-10T23:04:42;21.05;;;9.07;;
23614;SDS011;11985;49.404;7.734;2022-12-10T23:09:45;20.90;;;7.88;;
23614;SDS011;11985;49.404;7.734;2022-12-10T23:14:47;15.68;;;8.32;;
23614;SDS011;11985;49.404;7.734;2022-12-10T23:19:48;20.25;;;8.80;;
23614;SDS011;11985;49.404;7.734;2022-12-10T23:24:51;19.70;;;9.40;;
23614;SDS011;11985;49.404;7.734;2022-12-10T23:29:53;17.17;;;9.20;;
23614;SDS011;11985;49.404;7.734;2022-12-10T23:34:54;21.88;;;9.10;;
23614;SDS011;11985;49.404;7.734;2022-12-10T23:39:57;22.80;;;9.00;;
23614;SDS011;11985;49.404;7.734;2022-12-10T23:44:59;21.15;;;10.38;;
23614;SDS011;11985;49.404;7.734;2022-12-10T23:50:01;20.42;;;9.63;;
23614;SDS011;11985;49.404;7.734;2022-12-10T23:55:05;20.55;;;9.57;;
